createdAt,value
2023-05-13T00:00:12.717Z,101577.78
2023-05-13T00:01:15.809Z,101582.69
2023-05-13T00:02:17.810Z,101573.38
2023-05-13T00:03:19.673Z,101581.34
2023-05-13T00:04:21.548Z,101584.16
2023-05-13T00:05:23.285Z,101574.25
2023-05-13T00:06:25.088Z,101574.66
2023-05-13T00:07:26.907Z,101578.13
2023-05-13T00:08:29.132Z,101584.41
2023-05-13T00:09:31.038Z,101575.91
2023-05-13T00:10:36.265Z,101581.78
2023-05-13T00:11:38.106Z,101575.91
2023-05-13T00:12:39.917Z,101574.47
2023-05-13T00:13:41.665Z,101575.28
2023-05-13T00:14:43.393Z,101571.47
2023-05-13T00:15:45.151Z,101575.72
2023-05-13T00:16:47.198Z,101573.72
2023-05-13T00:17:49.016Z,101580.81
2023-05-13T00:18:51.440Z,101577.38
2023-05-13T00:19:53.290Z,101583.06
2023-05-13T00:20:56.225Z,101577.19
2023-05-13T00:21:57.958Z,101585.34
2023-05-13T00:22:59.688Z,101582.25
2023-05-13T00:24:01.692Z,101583.50
2023-05-13T00:25:04.100Z,101580.25
2023-05-13T00:26:05.966Z,101581.50
2023-05-13T00:27:08.388Z,101582.50
2023-05-13T00:28:11.421Z,101581.09
2023-05-13T00:29:13.284Z,101584.75
2023-05-13T00:30:15.232Z,101585.19
2023-05-13T00:31:17.213Z,101585.41
2023-05-13T00:32:19.043Z,101588.44
2023-05-13T00:33:20.794Z,101592.69
2023-05-13T00:34:22.581Z,101586.38
2023-05-13T00:35:24.322Z,101589.03
2023-05-13T00:36:27.380Z,101585.41
2023-05-13T00:37:29.121Z,101590.25
2023-05-13T00:38:30.938Z,101596.91
2023-05-13T00:39:32.656Z,101593.28
2023-05-13T00:40:42.276Z,101584.97
2023-05-13T00:41:44.151Z,101592.66
2023-05-13T00:42:46.222Z,101582.31
2023-05-13T00:43:48.006Z,101593.28
2023-05-13T00:44:49.729Z,101599.16
2023-05-13T00:45:51.529Z,101599.38
2023-05-13T00:46:54.102Z,101594.91
2023-05-13T00:47:55.925Z,101590.84
2023-05-13T00:48:59.640Z,101598.56
2023-05-13T00:50:01.657Z,101591.47
2023-05-13T00:51:04.024Z,101597.91
2023-05-13T00:52:06.434Z,101595.28
2023-05-13T00:53:08.243Z,101602.38
2023-05-13T00:54:09.976Z,101591.03
2023-05-13T00:55:12.104Z,101604.84
2023-05-13T00:56:15.051Z,101596.09
2023-05-13T00:57:17.237Z,101598.13
2023-05-13T00:58:19.029Z,101598.34
2023-05-13T00:59:21.545Z,101594.91
2023-05-13T01:00:23.505Z,101601.22
2023-05-13T01:01:52.737Z,101600.59
2023-05-13T01:03:11.494Z,101598.59
2023-05-13T01:05:21.135Z,101604.50
2023-05-13T01:07:15.978Z,101598.22
2023-05-13T01:08:46.316Z,101604.31
2023-05-13T01:10:23.954Z,101607.75
2023-05-13T01:11:39.862Z,101599.63
2023-05-13T01:12:46.741Z,101614.25
2023-05-13T01:13:57.649Z,101604.09
2023-05-13T01:15:08.885Z,101606.75
2023-05-13T01:16:21.076Z,101613.03
2023-05-13T01:17:41.341Z,101614.06
2023-05-13T01:18:56.621Z,101613.03
2023-05-13T01:20:02.463Z,101613.84
2023-05-13T01:21:06.507Z,101625.22
2023-05-13T01:22:08.459Z,101610.81
2023-05-13T01:23:12.447Z,101620.75
2023-05-13T01:24:14.214Z,101624.44
2023-05-13T01:25:15.998Z,101622.00
2023-05-13T01:26:17.880Z,101615.28
2023-05-13T01:27:19.930Z,101619.75
2023-05-13T01:28:22.076Z,101628.91
2023-05-13T01:29:23.897Z,101619.38
2023-05-13T01:30:26.667Z,101628.09
2023-05-13T01:31:29.983Z,101625.47
2023-05-13T01:32:32.480Z,101627.09
2023-05-13T01:33:34.236Z,101628.50
2023-05-13T01:34:38.420Z,101624.22
2023-05-13T01:35:40.701Z,101632.75
2023-05-13T01:36:43.616Z,101628.91
2023-05-13T01:37:46.768Z,101627.28
2023-05-13T01:38:50.036Z,101628.69
2023-05-13T01:39:52.176Z,101635.56
2023-05-13T01:40:56.536Z,101631.91
2023-05-13T01:41:58.946Z,101626.84
2023-05-13T01:43:00.966Z,101636.38
2023-05-13T01:44:02.768Z,101630.13
2023-05-13T01:45:06.838Z,101634.75
2023-05-13T01:46:14.497Z,101639.25
2023-05-13T01:47:16.662Z,101625.44
2023-05-13T01:48:21.398Z,101637.63
2023-05-13T01:49:23.139Z,101632.94
2023-05-13T01:50:25.194Z,101636.03
2023-05-13T01:51:26.972Z,101636.41
2023-05-13T01:52:28.707Z,101633.56
2023-05-13T01:53:31.235Z,101639.66
2023-05-13T01:54:33.004Z,101632.16
2023-05-13T01:55:34.940Z,101635.63
2023-05-13T01:56:36.782Z,101638.66
2023-05-13T01:57:38.528Z,101631.97
2023-05-13T01:58:40.349Z,101634.59
2023-05-13T01:59:42.154Z,101635.41
2023-05-13T02:00:43.981Z,101631.16
2023-05-13T02:01:45.720Z,101632.41
2023-05-13T02:02:47.672Z,101630.16
2023-05-13T02:03:50.339Z,101631.78
2023-05-13T02:04:52.151Z,101630.16
2023-05-13T02:05:53.881Z,101631.97
2023-05-13T02:06:55.696Z,101634.03
2023-05-13T02:07:57.602Z,101628.75
2023-05-13T02:08:59.344Z,101630.38
2023-05-13T02:10:01.105Z,101626.50
2023-05-13T02:11:03.048Z,101631.56
2023-05-13T02:12:05.504Z,101633.00
2023-05-13T02:13:07.251Z,101629.75
2023-05-13T02:14:09.097Z,101634.41
2023-05-13T02:15:11.448Z,101638.06
2023-05-13T02:16:22.406Z,101636.44
2023-05-13T02:17:24.214Z,101640.09
2023-05-13T02:18:26.030Z,101633.19
2023-05-13T02:19:27.808Z,101628.31
2023-05-13T02:20:29.665Z,101638.28
2023-05-13T02:21:32.159Z,101632.38
2023-05-13T02:22:33.942Z,101630.38
2023-05-13T02:23:35.742Z,101634.22
2023-05-13T02:24:40.332Z,101634.84
2023-05-13T02:25:42.391Z,101632.81
2023-05-13T02:26:45.061Z,101628.72
2023-05-13T02:27:46.824Z,101626.09
2023-05-13T02:28:48.784Z,101636.03
2023-05-13T02:29:50.562Z,101625.91
2023-05-13T02:30:52.301Z,101636.47
2023-05-13T02:31:55.483Z,101635.66
2023-05-13T02:32:57.973Z,101631.38
2023-05-13T02:33:59.777Z,101633.19
2023-05-13T02:35:01.517Z,101638.47
2023-05-13T02:36:03.505Z,101639.28
2023-05-13T02:37:05.943Z,101646.59
2023-05-13T02:38:10.476Z,101637.88
2023-05-13T02:39:12.244Z,101635.44
2023-05-13T02:40:14.785Z,101637.44
2023-05-13T02:41:16.547Z,101639.28
2023-05-13T02:42:18.601Z,101643.53
2023-05-13T02:43:20.448Z,101631.56
2023-05-13T02:44:22.177Z,101638.47
2023-05-13T02:45:24.090Z,101650.03
2023-05-13T02:46:25.912Z,101643.53
2023-05-13T02:47:27.787Z,101641.31
2023-05-13T02:48:29.715Z,101633.41
2023-05-13T02:49:31.483Z,101635.22
2023-05-13T02:50:33.435Z,101644.97
2023-05-13T02:51:35.308Z,101638.25
2023-05-13T02:52:38.912Z,101644.34
2023-05-13T02:53:40.674Z,101638.47
2023-05-13T02:54:42.390Z,101643.75
2023-05-13T02:55:44.156Z,101637.66
2023-05-13T02:56:46.018Z,101642.09
2023-05-13T02:57:47.780Z,101642.72
2023-05-13T02:58:49.528Z,101650.44
2023-05-13T02:59:51.236Z,101646.16
2023-05-13T03:00:53.082Z,101648.81
2023-05-13T03:01:54.887Z,101647.19
2023-05-13T03:02:57.630Z,101645.75
2023-05-13T03:03:59.506Z,101645.75
2023-05-13T03:05:01.336Z,101651.19
2023-05-13T03:06:03.280Z,101647.97
2023-05-13T03:07:05.356Z,101645.53
2023-05-13T03:08:07.240Z,101644.72
2023-05-13T03:09:09.060Z,101651.81
2023-05-13T03:10:10.977Z,101653.66
2023-05-13T03:11:12.710Z,101651.19
2023-05-13T03:12:14.530Z,101657.47
2023-05-13T03:13:16.300Z,101658.91
2023-05-13T03:14:18.000Z,101654.03
2023-05-13T03:15:19.948Z,101654.03
2023-05-13T03:16:21.781Z,101655.84
2023-05-13T03:17:23.636Z,101654.44
2023-05-13T03:18:25.468Z,101654.81
2023-05-13T03:19:27.712Z,101657.25
2023-05-13T03:20:30.495Z,101654.81
2023-05-13T03:21:32.271Z,101657.25
2023-05-13T03:22:34.075Z,101656.66
2023-05-13T03:23:35.892Z,101661.91
2023-05-13T03:24:37.851Z,101660.69
2023-05-13T03:25:39.605Z,101658.84
2023-05-13T03:26:41.393Z,101664.56
2023-05-13T03:27:43.165Z,101660.31
2023-05-13T03:28:44.927Z,101659.50
2023-05-13T03:29:46.643Z,101661.13
2023-05-13T03:30:48.459Z,101656.06
2023-05-13T03:31:51.118Z,101663.94
2023-05-13T03:32:52.979Z,101657.25
2023-05-13T03:33:54.805Z,101669.81
2023-05-13T03:34:58.108Z,101659.47
2023-05-13T03:35:59.926Z,101663.94
2023-05-13T03:37:02.074Z,101659.88
2023-05-13T03:38:03.946Z,101661.91
2023-05-13T03:39:05.686Z,101666.34
2023-05-13T03:40:08.584Z,101666.72
2023-05-13T03:41:10.422Z,101668.75
2023-05-13T03:42:12.226Z,101663.50
2023-05-13T03:43:14.303Z,101670.78
2023-05-13T03:44:16.043Z,101666.72
2023-05-13T03:45:17.810Z,101662.66
2023-05-13T03:46:19.625Z,101667.72
2023-05-13T03:47:21.410Z,101667.13
2023-05-13T03:48:23.163Z,101670.75
2023-05-13T03:49:25.029Z,101662.25
2023-05-13T03:50:27.347Z,101669.34
2023-05-13T03:51:29.095Z,101669.13
2023-05-13T03:52:30.856Z,101669.94
2023-05-13T03:53:33.021Z,101668.53
2023-05-13T03:54:35.554Z,101670.34
2023-05-13T03:55:37.273Z,101670.72
2023-05-13T03:56:39.025Z,101669.91
2023-05-13T03:57:47.453Z,101671.94
2023-05-13T03:58:49.227Z,101672.75
2023-05-13T03:59:51.023Z,101676.00
2023-05-13T04:00:52.752Z,101675.38
2023-05-13T04:01:54.556Z,101668.50
2023-05-13T04:02:56.996Z,101679.03
2023-05-13T04:03:58.783Z,101678.03
2023-05-13T04:05:00.604Z,101683.50
2023-05-13T04:06:02.463Z,101681.03
2023-05-13T04:07:04.514Z,101684.31
2023-05-13T04:08:06.230Z,101685.09
2023-05-13T04:09:07.974Z,101692.00
2023-05-13T04:10:19.138Z,101692.59
2023-05-13T04:11:21.692Z,101689.78
2023-05-13T04:12:23.707Z,101693.03
2023-05-13T04:13:25.456Z,101697.28
2023-05-13T04:14:27.268Z,101695.28
2023-05-13T04:15:29.156Z,101696.09
2023-05-13T04:16:31.368Z,101694.88
2023-05-13T04:17:33.187Z,101702.56
2023-05-13T04:18:35.010Z,101704.59
2023-05-13T04:19:36.764Z,101702.78
2023-05-13T04:20:39.620Z,101699.53
2023-05-13T04:21:41.341Z,101706.00
2023-05-13T04:22:43.106Z,101702.34
2023-05-13T04:23:44.854Z,101700.72
2023-05-13T04:24:46.609Z,101708.63
2023-05-13T04:25:52.701Z,101710.25
2023-05-13T04:26:54.511Z,101706.81
2023-05-13T04:27:56.315Z,101704.38
2023-05-13T04:28:58.058Z,101713.50
2023-05-13T04:29:59.811Z,101714.69
2023-05-13T04:31:02.813Z,101709.81
2023-05-13T04:32:05.045Z,101715.91
2023-05-13T04:33:06.923Z,101713.47
2023-05-13T04:34:08.709Z,101720.34
2023-05-13T04:35:10.519Z,101716.72
2023-05-13T04:36:14.865Z,101714.28
2023-05-13T04:37:17.784Z,101714.06
2023-05-13T04:38:19.639Z,101723.00
2023-05-13T04:39:21.510Z,101726.44
2023-05-13T04:40:23.344Z,101719.53
2023-05-13T04:41:25.200Z,101724.00
2023-05-13T04:42:27.149Z,101721.97
2023-05-13T04:43:29.388Z,101721.56
2023-05-13T04:44:31.083Z,101722.22
2023-05-13T04:45:32.896Z,101724.63
2023-05-13T04:46:34.803Z,101722.00
2023-05-13T04:47:38.003Z,101729.09
2023-05-13T04:48:39.957Z,101728.88
2023-05-13T04:49:42.437Z,101730.34
2023-05-13T04:50:48.068Z,101730.94
2023-05-13T04:51:50.516Z,101729.94
2023-05-13T04:52:54.684Z,101733.16
2023-05-13T04:53:56.566Z,101734.19
2023-05-13T04:54:58.341Z,101728.09
2023-05-13T04:56:00.989Z,101732.34
2023-05-13T04:57:03.386Z,101731.56
2023-05-13T04:58:05.311Z,101728.75
2023-05-13T04:59:09.608Z,101730.38
2023-05-13T05:00:13.251Z,101736.03
2023-05-13T05:01:15.031Z,101744.75
2023-05-13T05:02:16.827Z,101736.47
2023-05-13T05:03:18.587Z,101736.25
2023-05-13T05:04:20.393Z,101747.59
2023-05-13T05:05:22.340Z,101742.97
2023-05-13T05:06:24.131Z,101738.31
2023-05-13T05:07:25.911Z,101737.28
2023-05-13T05:08:28.723Z,101739.56
2023-05-13T05:09:30.520Z,101733.25
2023-05-13T05:10:32.286Z,101737.31
2023-05-13T05:11:34.015Z,101744.63
2023-05-13T05:12:36.258Z,101746.06
2023-05-13T05:13:38.013Z,101735.94
2023-05-13T05:14:39.992Z,101737.34
2023-05-13T05:15:41.812Z,101740.22
2023-05-13T05:16:43.543Z,101738.81
2023-05-13T05:17:46.111Z,101749.78
2023-05-13T05:18:48.027Z,101737.22
2023-05-13T05:19:49.881Z,101745.34
2023-05-13T05:20:51.596Z,101742.31
2023-05-13T05:21:53.355Z,101748.81
2023-05-13T05:22:55.095Z,101751.03
2023-05-13T05:23:56.906Z,101751.66
2023-05-13T05:24:58.740Z,101741.94
2023-05-13T05:26:11.072Z,101741.94
2023-05-13T05:27:13.709Z,101738.66
2023-05-13T05:28:15.457Z,101744.75
2023-05-13T05:29:18.235Z,101749.63
2023-05-13T05:30:20.297Z,101747.22
2023-05-13T05:31:22.231Z,101748.81
2023-05-13T05:32:24.348Z,101748.00
2023-05-13T05:33:26.099Z,101747.22
2023-05-13T05:34:27.910Z,101743.56
2023-05-13T05:35:29.728Z,101754.31
2023-05-13T05:36:31.501Z,101754.91
2023-05-13T05:37:33.514Z,101754.53
2023-05-13T05:38:35.263Z,101750.66
2023-05-13T05:39:37.050Z,101757.16
2023-05-13T05:40:44.312Z,101758.56
2023-05-13T05:41:47.119Z,101758.38
2023-05-13T05:42:48.932Z,101756.38
2023-05-13T05:43:51.005Z,101753.72
2023-05-13T05:44:52.823Z,101765.47
2023-05-13T05:45:54.607Z,101757.56
2023-05-13T05:46:56.440Z,101764.88
2023-05-13T05:47:58.389Z,101761.84
2023-05-13T05:49:00.303Z,101759.81
2023-05-13T05:50:02.045Z,101761.03
2023-05-13T05:51:04.290Z,101754.94
2023-05-13T05:52:06.505Z,101759.41
2023-05-13T05:53:08.299Z,101757.97
2023-05-13T05:54:10.084Z,101757.16
2023-05-13T05:55:11.820Z,101758.28
2023-05-13T05:56:13.581Z,101760.41
2023-05-13T05:57:15.522Z,101762.19
2023-05-13T05:58:17.710Z,101758.63
2023-05-13T05:59:19.920Z,101764.44
2023-05-13T06:00:22.061Z,101757.06
2023-05-13T06:01:24.113Z,101764.47
2023-05-13T06:02:26.039Z,101763.31
2023-05-13T06:03:28.087Z,101762.53
2023-05-13T06:04:29.934Z,101762.78
2023-05-13T06:05:31.723Z,101761.00
2023-05-13T06:06:33.890Z,101757.53
2023-05-13T06:07:35.753Z,101757.16
2023-05-13T06:08:37.468Z,101756.78
2023-05-13T06:09:39.210Z,101762.38
2023-05-13T06:10:41.065Z,101758.22
2023-05-13T06:11:42.800Z,101760.03
2023-05-13T06:12:44.630Z,101758.31
2023-05-13T06:13:46.541Z,101757.97
2023-05-13T06:14:49.249Z,101766.19
2023-05-13T06:15:51.109Z,101765.69
2023-05-13T06:16:54.960Z,101768.66
2023-05-13T06:17:57.980Z,101753.31
2023-05-13T06:18:59.780Z,101760.38
2023-05-13T06:20:01.547Z,101758.31
2023-05-13T06:21:03.518Z,101760.63
2023-05-13T06:22:05.237Z,101761.69
2023-05-13T06:23:09.919Z,101752.66
2023-05-13T06:24:11.682Z,101759.34
2023-05-13T06:25:13.702Z,101758.34
2023-05-13T06:26:15.578Z,101762.72
2023-05-13T06:27:17.380Z,101764.22
2023-05-13T06:28:19.244Z,101756.59
2023-05-13T06:29:21.044Z,101761.06
2023-05-13T06:30:23.465Z,101762.72
2023-05-13T06:31:26.760Z,101757.91
2023-05-13T06:32:28.593Z,101758.44
2023-05-13T06:33:30.438Z,101760.13
2023-05-13T06:34:32.280Z,101762.13
2023-05-13T06:35:34.009Z,101763.88
2023-05-13T06:36:35.750Z,101761.16
2023-05-13T06:37:37.496Z,101757.59
2023-05-13T06:38:39.300Z,101764.13
2023-05-13T06:39:41.278Z,101760.50
2023-05-13T06:40:44.604Z,101765.06
2023-05-13T06:41:46.456Z,101756.94
2023-05-13T06:42:48.207Z,101758.97
2023-05-13T06:43:49.947Z,101752.09
2023-05-13T06:44:51.953Z,101752.66
2023-05-13T06:45:53.676Z,101753.56
2023-05-13T06:46:55.590Z,101758.25
2023-05-13T06:47:57.647Z,101757.75
2023-05-13T06:49:00.012Z,101753.63
2023-05-13T06:50:03.949Z,101753.13
2023-05-13T06:51:05.973Z,101754.59
2023-05-13T06:52:09.542Z,101751.88
2023-05-13T06:53:11.794Z,101749.31
2023-05-13T06:54:13.799Z,101748.66
2023-05-13T06:55:16.692Z,101747.09
2023-05-13T06:56:18.441Z,101745.75
2023-05-13T06:57:20.864Z,101737.94
2023-05-13T06:58:25.231Z,101738.72
2023-05-13T06:59:27.030Z,101745.53
2023-05-13T07:00:28.815Z,101742.69
2023-05-13T07:01:30.840Z,101734.50
2023-05-13T07:02:32.846Z,101732.19
2023-05-13T07:03:34.761Z,101747.22
2023-05-13T07:04:37.032Z,101736.28
2023-05-13T07:05:38.914Z,101744.63
2023-05-13T07:06:40.711Z,101739.25
2023-05-13T07:07:43.365Z,101735.50
2023-05-13T07:08:45.223Z,101730.16
2023-05-13T07:09:46.950Z,101743.00
2023-05-13T07:10:48.941Z,101734.94
2023-05-13T07:11:50.929Z,101736.03
2023-05-13T07:12:52.872Z,101734.38
2023-05-13T07:13:54.843Z,101728.22
2023-05-13T07:14:56.769Z,101729.28
2023-05-13T07:15:58.487Z,101725.19
2023-05-13T07:17:00.321Z,101729.41
2023-05-13T07:18:02.109Z,101730.69
2023-05-13T07:19:03.888Z,101725.53
2023-05-13T07:20:07.798Z,101727.09
2023-05-13T07:21:09.749Z,101725.72
2023-05-13T07:22:11.576Z,101717.66
2023-05-13T07:23:13.391Z,101712.25
2023-05-13T07:24:15.178Z,101711.13
2023-05-13T07:25:18.170Z,101712.41
2023-05-13T07:26:19.933Z,101726.03
2023-05-13T07:27:21.867Z,101721.16
2023-05-13T07:28:23.834Z,101713.44
2023-05-13T07:29:25.979Z,101713.50
2023-05-13T07:30:29.652Z,101716.22
2023-05-13T07:31:31.583Z,101713.78
2023-05-13T07:32:35.195Z,101713.97
2023-05-13T07:33:37.164Z,101715.50
2023-05-13T07:34:38.934Z,101714.13
2023-05-13T07:35:40.994Z,101710.59
2023-05-13T07:36:42.894Z,101705.31
2023-05-13T07:37:45.366Z,101712.31
2023-05-13T07:38:47.089Z,101705.09
2023-05-13T07:39:48.841Z,101703.78
2023-05-13T07:40:50.810Z,101694.91
2023-05-13T07:41:52.585Z,101709.03
2023-05-13T07:42:54.291Z,101704.97
2023-05-13T07:43:56.573Z,101706.13
2023-05-13T07:44:58.468Z,101710.84
2023-05-13T07:46:00.774Z,101703.25
2023-05-13T07:47:02.531Z,101706.81
2023-05-13T07:48:05.489Z,101692.31
2023-05-13T07:49:08.769Z,101708.44
2023-05-13T07:50:10.654Z,101695.34
2023-05-13T07:51:12.542Z,101699.94
2023-05-13T07:52:14.302Z,101707.41
2023-05-13T07:53:17.724Z,101701.59
2023-05-13T07:54:21.336Z,101694.69
2023-05-13T07:55:23.664Z,101703.06
2023-05-13T07:56:25.891Z,101700.50
2023-05-13T07:57:27.649Z,101697.59
2023-05-13T07:58:29.381Z,101694.69
2023-05-13T07:59:31.194Z,101696.28
2023-05-13T08:00:33.072Z,101685.84
2023-05-13T08:01:34.810Z,101689.84
2023-05-13T08:02:42.707Z,101698.19
2023-05-13T08:03:44.726Z,101700.88
2023-05-13T08:04:46.672Z,101677.03
2023-05-13T08:05:48.402Z,101695.81
2023-05-13T08:06:50.186Z,101695.31
2023-05-13T08:07:51.872Z,101684.09
2023-05-13T08:08:53.639Z,101689.50
2023-05-13T08:09:55.438Z,101687.28
2023-05-13T08:10:57.185Z,101684.28
2023-05-13T08:11:58.989Z,101679.63
2023-05-13T08:13:01.046Z,101690.81
2023-05-13T08:14:02.838Z,101689.91
2023-05-13T08:15:05.976Z,101684.72
2023-05-13T08:16:08.010Z,101685.78
2023-05-13T08:17:09.750Z,101687.38
2023-05-13T08:18:11.586Z,101694.91
2023-05-13T08:19:16.609Z,101685.53
2023-05-13T08:20:18.405Z,101715.94
2023-05-13T08:21:20.209Z,101697.88
2023-05-13T08:22:21.956Z,101703.34
2023-05-13T08:23:36.848Z,101694.53
2023-05-13T08:24:46.297Z,101716.31
2023-05-13T08:25:48.599Z,101716.97
2023-05-13T08:26:50.921Z,101702.00
2023-05-13T08:27:52.648Z,101717.72
2023-05-13T08:28:54.931Z,101709.03
2023-05-13T08:29:57.124Z,101706.25
2023-05-13T08:31:02.537Z,101702.09
2023-05-13T08:32:05.436Z,101697.66
2023-05-13T08:33:08.214Z,101704.44
2023-05-13T08:34:10.224Z,101711.75
2023-05-13T08:35:11.972Z,101709.19
2023-05-13T08:36:14.509Z,101704.94
2023-05-13T08:37:16.262Z,101716.19
2023-05-13T08:38:18.033Z,101724.00
2023-05-13T08:39:19.848Z,101714.88
2023-05-13T08:40:21.607Z,101714.59
2023-05-13T08:41:23.315Z,101708.44
2023-05-13T08:42:28.583Z,101720.75
2023-05-13T08:43:33.510Z,101714.34
2023-05-13T08:44:43.460Z,101702.00
2023-05-13T08:45:51.638Z,101717.78
2023-05-13T08:47:26.046Z,101717.47
2023-05-13T08:48:28.492Z,101705.38
2023-05-13T08:49:30.572Z,101715.88
2023-05-13T08:50:33.281Z,101719.91
2023-05-13T08:51:35.213Z,101712.13
2023-05-13T08:52:37.013Z,101706.50
2023-05-13T08:53:45.307Z,101708.66
2023-05-13T08:54:48.739Z,101714.28
2023-05-13T08:55:51.586Z,101719.38
2023-05-13T08:56:53.357Z,101718.06
2023-05-13T08:57:55.164Z,101713.25
2023-05-13T08:58:57.813Z,101717.81
2023-05-13T08:59:59.568Z,101716.47
2023-05-13T09:01:04.318Z,101714.03
2023-05-13T09:02:06.959Z,101719.66
2023-05-13T09:03:08.808Z,101711.59
2023-05-13T09:04:11.603Z,101708.03
2023-05-13T09:05:14.745Z,101702.09
2023-05-13T09:06:16.562Z,101708.22
2023-05-13T09:07:18.459Z,101701.91
2023-05-13T09:08:20.336Z,101717.19
2023-05-13T09:09:22.674Z,101701.22
2023-05-13T09:10:24.493Z,101706.31
2023-05-13T09:11:26.814Z,101711.69
2023-05-13T09:12:54.101Z,101711.16
2023-05-13T09:14:03.704Z,101703.38
2023-05-13T09:15:26.863Z,101693.69
2023-05-13T09:16:29.975Z,101707.72
2023-05-13T09:17:31.953Z,101710.22
2023-05-13T09:18:33.906Z,101706.03
2023-05-13T09:19:36.303Z,101702.81
2023-05-13T09:20:38.510Z,101704.59
2023-05-13T09:21:40.500Z,101707.63
2023-05-13T09:22:51.874Z,101702.09
2023-05-13T09:24:23.026Z,101700.03
2023-05-13T09:25:25.970Z,101693.28
2023-05-13T09:26:29.750Z,101697.00
2023-05-13T09:27:42.484Z,101688.28
2023-05-13T09:28:44.210Z,101691.50
2023-05-13T09:29:46.046Z,101687.19
2023-05-13T09:30:55.907Z,101693.28
2023-05-13T09:32:01.934Z,101696.16
2023-05-13T09:33:19.894Z,101682.78
2023-05-13T09:34:34.778Z,101682.53
2023-05-13T09:35:40.477Z,101693.22
2023-05-13T09:36:42.973Z,101685.56
2023-05-13T09:37:49.099Z,101700.25
2023-05-13T09:38:55.033Z,101685.88
2023-05-13T09:39:56.972Z,101685.75
2023-05-13T09:41:03.089Z,101690.00
2023-05-13T09:42:05.864Z,101704.66
2023-05-13T09:43:08.377Z,101691.94
2023-05-13T09:44:12.550Z,101696.31
2023-05-13T09:45:17.519Z,101697.59
2023-05-13T09:46:21.378Z,101688.69
2023-05-13T09:47:24.717Z,101677.81
2023-05-13T09:48:31.791Z,101674.03
2023-05-13T09:49:34.016Z,101681.00
2023-05-13T09:50:46.125Z,101684.25
2023-05-13T09:51:47.884Z,101687.72
2023-05-13T09:52:49.863Z,101683.91
2023-05-13T09:53:51.682Z,101686.63
2023-05-13T09:54:58.169Z,101679.94
2023-05-13T09:56:01.597Z,101680.50
2023-05-13T09:57:04.908Z,101679.59
2023-05-13T09:58:12.701Z,101673.75
2023-05-13T09:59:16.164Z,101699.13
2023-05-13T10:00:31.743Z,101676.91
2023-05-13T10:01:39.326Z,101675.25
2023-05-13T10:02:41.797Z,101671.78
2023-05-13T10:03:47.594Z,101673.94
2023-05-13T10:04:49.707Z,101689.78
2023-05-13T10:05:53.724Z,101678.16
2023-05-13T10:06:57.220Z,101686.78
2023-05-13T10:08:04.631Z,101666.00
2023-05-13T10:09:10.038Z,101668.50
2023-05-13T10:10:12.548Z,101673.59
2023-05-13T10:11:17.077Z,101674.44
2023-05-13T10:12:22.711Z,101672.53
2023-05-13T10:13:25.590Z,101669.63
2023-05-13T10:14:28.065Z,101670.13
2023-05-13T10:15:31.112Z,101677.88
2023-05-13T10:16:33.649Z,101673.81
2023-05-13T10:17:37.912Z,101677.34
2023-05-13T10:18:40.414Z,101673.31
2023-05-13T10:19:42.983Z,101669.84
2023-05-13T10:20:46.596Z,101677.66
2023-05-13T10:21:52.444Z,101666.69
2023-05-13T10:22:56.991Z,101669.88
2023-05-13T10:23:59.380Z,101675.53
2023-05-13T10:25:05.076Z,101659.69
2023-05-13T10:26:07.570Z,101662.66
2023-05-13T10:27:12.005Z,101667.72
2023-05-13T10:28:16.585Z,101675.25
2023-05-13T10:29:20.061Z,101663.97
2023-05-13T10:30:26.329Z,101671.47
2023-05-13T10:31:29.654Z,101658.88
2023-05-13T10:32:31.973Z,101659.41
2023-05-13T10:33:33.948Z,101658.88
2023-05-13T10:34:38.381Z,101666.91
2023-05-13T10:35:59.739Z,101654.88
2023-05-13T10:37:22.672Z,101661.84
2023-05-13T10:39:17.622Z,101661.59
2023-05-13T10:41:14.741Z,101664.50
2023-05-13T10:42:46.016Z,101671.38
2023-05-13T10:43:58.433Z,101667.56
2023-05-13T10:45:01.034Z,101660.31
2023-05-13T10:46:07.555Z,101649.09
2023-05-13T10:47:11.156Z,101664.59
2023-05-13T10:48:15.461Z,101656.84
2023-05-13T10:49:17.496Z,101665.38
2023-05-13T10:50:25.245Z,101666.97
2023-05-13T10:51:28.254Z,101653.31
2023-05-13T10:52:49.441Z,101653.03
2023-05-13T10:53:55.847Z,101649.88
2023-05-13T10:55:04.740Z,101652.03
2023-05-13T10:56:07.930Z,101656.31
2023-05-13T10:57:10.465Z,101650.72
2023-05-13T10:58:15.369Z,101654.75
2023-05-13T10:59:18.240Z,101649.91
2023-05-13T11:00:30.302Z,101657.69
2023-05-13T11:01:44.384Z,101644.63
2023-05-13T11:02:46.420Z,101655.06
2023-05-13T11:04:06.708Z,101656.19
2023-05-13T11:05:09.343Z,101653.28
2023-05-13T11:06:13.679Z,101658.59
2023-05-13T11:07:16.649Z,101662.63
2023-05-13T11:08:43.439Z,101652.19
2023-05-13T11:09:50.963Z,101656.22
2023-05-13T11:10:55.944Z,101666.38
2023-05-13T11:12:03.627Z,101657.00
2023-05-13T11:13:13.935Z,101657.50
2023-05-13T11:14:24.761Z,101656.88
2023-05-13T11:15:46.019Z,101656.56
2023-05-13T11:17:01.396Z,101651.44
2023-05-13T11:18:03.337Z,101647.56
2023-05-13T11:19:28.145Z,101654.50
2023-05-13T11:20:37.382Z,101664.94
2023-05-13T11:21:55.520Z,101644.88
2023-05-13T11:22:58.896Z,101649.41
2023-05-13T11:24:07.715Z,101662.75
2023-05-13T11:25:12.721Z,101661.84
2023-05-13T11:26:19.012Z,101646.47
2023-05-13T11:27:21.488Z,101649.78
2023-05-13T11:28:57.589Z,101661.63
2023-05-13T11:29:59.389Z,101661.16
2023-05-13T11:31:17.265Z,101653.34
2023-05-13T11:32:57.206Z,101639.63
2023-05-13T11:34:15.610Z,101662.31
2023-05-13T11:35:22.801Z,101647.47
2023-05-13T11:36:31.297Z,101655.09
2023-05-13T11:37:33.490Z,101643.84
2023-05-13T11:38:35.360Z,101649.75
2023-05-13T11:39:44.003Z,101644.19
2023-05-13T11:40:46.535Z,101635.94
2023-05-13T11:41:54.981Z,101650.06
2023-05-13T11:42:57.878Z,101646.41
2023-05-13T11:44:00.370Z,101635.81
2023-05-13T11:45:02.880Z,101637.47
2023-05-13T11:46:06.299Z,101630.59
2023-05-13T11:47:08.318Z,101638.88
2023-05-13T11:48:24.377Z,101629.81
2023-05-13T11:49:40.390Z,101640.47
2023-05-13T11:50:42.172Z,101638.94
2023-05-13T11:51:44.188Z,101640.16
2023-05-13T11:52:53.193Z,101643.50
2023-05-13T11:54:04.505Z,101630.81
2023-05-13T11:55:07.172Z,101626.09
2023-05-13T11:56:10.919Z,101629.88
2023-05-13T11:57:25.332Z,101637.44
2023-05-13T11:58:27.370Z,101641.50
2023-05-13T11:59:33.489Z,101640.44
2023-05-13T12:00:40.625Z,101644.72
2023-05-13T12:01:42.614Z,101636.16
2023-05-13T12:02:46.122Z,101635.22
2023-05-13T12:03:48.130Z,101635.31
2023-05-13T12:04:51.701Z,101628.75
2023-05-13T12:06:03.248Z,101638.34
2023-05-13T12:07:05.180Z,101631.09
2023-05-13T12:08:09.924Z,101634.56
2023-05-13T12:09:13.091Z,101643.09
2023-05-13T12:10:15.765Z,101629.47
2023-05-13T12:11:17.674Z,101639.34